Time;durP1;ratioP1;P1;durP2;ratioP2;P2;SDS_P1;SDS_P2;PMS_P1;PMS_P2;Temp;Humidity;BMP_temperature;BMP_pressure;BME280_temperature;BME280_humidity;BME280_pressure;Samples;Min_cycle;Max_cycle;Signal;HPM_P1;HPM_P2
2021/09/17 00:01:50;;;;;;;12.70;8.50;;;;;;;14.73;53.72;99506.73;116913;1198;22328;-58
2021/09/17 00:04:18;;;;;;;17.80;8.50;;;;;;;14.71;53.54;99507.42;116866;1198;137915;-58
2021/09/17 00:06:46;;;;;;;13.50;8.40;;;;;;;14.71;53.90;99505.71;116981;1199;23693;-58
2021/09/17 00:09:15;;;;;;;19.90;8.80;;;;;;;14.70;53.82;99503.92;116881;1198;137303;-58
2021/09/17 00:11:47;;;;;;;12.00;7.20;;;;;;;14.70;53.76;99502.34;117025;1198;23026;-58
2021/09/17 00:14:35;;;;;;;12.50;7.10;;;;;;;14.69;53.78;99499.81;116898;1198;22411;-58
2021/09/17 00:17:04;;;;;;;21.10;8.90;;;;;;;14.70;53.73;99501.95;116852;1199;137801;-58
2021/09/17 00:19:48;;;;;;;14.00;7.80;;;;;;;14.70;53.78;99499.75;116969;1199;23079;-58
2021/09/17 00:22:16;;;;;;;14.10;7.70;;;;;;;14.72;53.72;99497.75;116774;1198;138221;-58
2021/09/17 00:24:44;;;;;;;18.90;8.40;;;;;;;14.72;53.75;99492.30;116923;1199;22546;-58
2021/09/17 00:27:32;;;;;;;11.80;7.40;;;;;;;14.73;53.82;99492.41;116897;1199;137336;-58
2021/09/17 00:30:00;;;;;;;18.00;8.20;;;;;;;14.73;53.75;99487.48;116919;1198;22360;-57
2021/09/17 00:32:29;;;;;;;11.50;7.10;;;;;;;14.73;53.68;99485.40;116978;1198;22380;-59
2021/09/17 00:34:58;;;;;;;16.30;7.80;;;;;;;14.74;53.94;99481.44;116841;1199;138565;-58
2021/09/17 00:37:26;;;;;;;18.00;7.80;;;;;;;14.74;54.01;99479.58;117011;1184;22221;-58
2021/09/17 00:39:54;;;;;;;12.60;7.60;;;;;;;14.74;53.84;99480.12;116811;1198;137152;-58
2021/09/17 00:42:22;;;;;;;17.10;8.60;;;;;;;14.75;53.63;99476.83;116947;1199;23534;-58
2021/09/17 00:44:50;;;;;;;11.90;8.00;;;;;;;14.75;53.60;99471.79;116851;1199;137703;-58
2021/09/17 00:47:19;;;;;;;13.00;7.60;;;;;;;14.77;53.75;99472.20;116963;1184;22138;-58
2021/09/17 00:49:47;;;;;;;14.20;7.30;;;;;;;14.78;53.71;99468.96;116960;1197;22445;-58
2021/09/17 00:52:17;;;;;;;13.50;7.60;;;;;;;14.79;53.68;99469.23;116871;1199;137832;-58
2021/09/17 00:54:45;;;;;;;12.50;7.20;;;;;;;14.79;53.64;99465.11;116977;1184;22311;-58
2021/09/17 00:57:14;;;;;;;12.20;6.50;;;;;;;14.80;53.58;99463.85;116846;1196;140219;-58
2021/09/17 00:59:42;;;;;;;14.10;7.70;;;;;;;14.81;53.45;99454.90;116756;1199;23269;-58
2021/09/17 01:02:11;;;;;;;14.20;7.60;;;;;;;14.81;53.40;99449.14;116981;1198;22320;-58
2021/09/17 01:04:40;;;;;;;12.80;7.60;;;;;;;14.82;53.39;99448.20;116902;1199;137552;-58
2021/09/17 01:07:28;;;;;;;11.80;7.40;;;;;;;14.84;53.24;99448.86;116922;1198;23129;-58
2021/09/17 01:09:57;;;;;;;16.70;7.30;;;;;;;14.87;53.23;99449.58;116883;1199;138132;-58
2021/09/17 01:12:28;;;;;;;16.40;7.20;;;;;;;14.88;53.25;99444.61;116895;1199;22223;-58
2021/09/17 01:14:57;;;;;;;9.80;6.70;;;;;;;14.89;53.37;99440.33;116885;1199;137280;-58
2021/09/17 01:17:37;;;;;;;12.00;7.70;;;;;;;14.91;53.40;99438.23;116952;1198;23360;-58
2021/09/17 01:20:08;;;;;;;14.80;7.50;;;;;;;14.92;53.37;99432.58;116922;1199;23107;-58
2021/09/17 01:22:36;;;;;;;13.80;7.30;;;;;;;14.92;53.37;99430.83;116803;1199;139060;-58
2021/09/17 01:25:24;;;;;;;12.50;6.60;;;;;;;14.93;53.35;99431.14;116983;1198;22463;-58
2021/09/17 01:28:12;;;;;;;11.10;6.70;;;;;;;14.95;53.19;99429.27;116879;1199;137088;-57
2021/09/17 01:31:01;;;;;;;14.80;7.40;;;;;;;14.96;53.16;99427.61;116967;1199;23113;-58
2021/09/17 01:33:42;;;;;;;11.30;6.90;;;;;;;14.95;53.34;99427.45;116923;1199;138045;-58
2021/09/17 01:36:10;;;;;;;12.70;6.80;;;;;;;14.96;53.32;99425.91;116943;1198;22372;-59
2021/09/17 01:38:40;;;;;;;13.90;6.70;;;;;;;14.96;53.31;99418.11;116951;1193;22190;-58
2021/09/17 01:41:08;;;;;;;11.40;7.20;;;;;;;14.95;53.19;99415.27;116893;1199;139205;-58
2021/09/17 01:43:36;;;;;;;12.40;7.30;;;;;;;14.95;53.33;99413.95;116934;1198;22378;-58
2021/09/17 01:46:05;;;;;;;15.40;6.80;;;;;;;14.93;53.34;99407.98;115259;1198;137615;-58
2021/09/17 01:48:33;;;;;;;13.00;7.80;;;;;;;14.95;53.43;99410.94;112436;1199;25169;-58
2021/09/17 01:51:21;;;;;;;12.70;7.20;;;;;;;14.94;53.28;99402.27;112435;1199;138701;-58
2021/09/17 01:54:10;;;;;;;14.50;7.70;;;;;;;14.90;53.26;99396.95;112502;1198;25045;-58
2021/09/17 01:56:38;;;;;;;11.40;6.80;;;;;;;14.90;53.11;99393.26;116871;1198;23313;-58
2021/09/17 01:59:07;;;;;;;15.70;7.60;;;;;;;14.89;53.22;99391.95;116835;1199;137429;-59
2021/09/17 02:01:35;;;;;;;17.70;8.00;;;;;;;14.89;53.35;99391.95;116988;1198;22404;-58
2021/09/17 02:04:04;;;;;;;14.10;7.50;;;;;;;14.88;53.44;99387.23;116826;1199;137861;-59
2021/09/17 02:06:32;;;;;;;14.40;7.20;;;;;;;14.89;53.52;99387.06;116885;1198;22182;-58
2021/09/17 02:09:20;;;;;;;12.70;7.50;;;;;;;14.89;53.44;99383.39;116920;1198;138826;-58
2021/09/17 02:11:53;;;;;;;14.20;7.10;;;;;;;14.88;53.57;99378.67;116915;1198;24700;-59
2021/09/17 02:14:30;;;;;;;12.20;7.30;;;;;;;14.90;53.66;99374.88;116994;1199;22346;-59
2021/09/17 02:16:59;;;;;;;16.10;7.30;;;;;;;14.90;53.63;99373.17;116903;1197;137133;-58
2021/09/17 02:19:27;;;;;;;12.90;6.40;;;;;;;14.91;53.67;99369.37;116984;1198;22334;-59
2021/09/17 02:21:56;;;;;;;14.30;7.70;;;;;;;14.89;53.73;99362.70;116891;1198;138090;-58
2021/09/17 02:24:24;;;;;;;15.50;8.40;;;;;;;14.90;53.61;99361.05;116957;1199;22345;-58
2021/09/17 02:26:53;;;;;;;16.70;8.50;;;;;;;14.89;53.62;99357.16;116895;1198;137522;-58
2021/09/17 02:29:22;;;;;;;17.70;8.90;;;;;;;14.88;53.67;99353.73;116985;1198;22346;-58
2021/09/17 02:31:51;;;;;;;14.20;8.60;;;;;;;14.89;53.70;99350.80;116914;1199;22322;-59
2021/09/17 02:34:19;;;;;;;16.00;8.20;;;;;;;14.89;53.60;99351.95;116842;1197;137149;-58
2021/09/17 02:36:47;;;;;;;15.70;7.60;;;;;;;14.87;53.59;99351.47;117007;1196;23304;-58
2021/09/17 02:39:16;;;;;;;14.40;7.30;;;;;;;14.86;53.77;99350.10;116835;1198;137418;-58
2021/09/17 02:41:45;;;;;;;12.50;7.20;;;;;;;14.87;53.78;99350.26;116942;1197;22234;-58
2021/09/17 02:44:13;;;;;;;14.50;7.50;;;;;;;14.86;53.83;99348.42;116930;1198;22293;-59
2021/09/17 02:46:41;;;;;;;12.70;6.20;;;;;;;14.85;54.17;99342.40;116912;1197;137944;-58
2021/09/17 02:49:09;;;;;;;13.00;6.70;;;;;;;14.87;54.11;99344.23;116958;1198;23190;-58
2021/09/17 02:51:50;;;;;;;13.30;6.90;;;;;;;14.86;54.02;99338.58;116858;1198;137187;-58
2021/09/17 02:54:18;;;;;;;12.00;6.60;;;;;;;14.86;53.96;99341.54;116998;1194;22428;-58
2021/09/17 02:56:47;;;;;;;12.60;6.30;;;;;;;14.86;53.93;99338.42;114121;1193;23236;-58
2021/09/17 02:59:17;;;;;;;12.60;5.70;;;;;;;14.86;53.89;99332.77;116888;1198;136897;-58
2021/09/17 03:01:46;;;;;;;10.00;5.30;;;;;;;14.85;53.73;99330.12;116982;1199;22251;-58
2021/09/17 03:04:14;;;;;;;20.00;5.50;;;;;;;14.86;53.72;99326.73;116828;1197;138004;-58
2021/09/17 03:06:43;;;;;;;9.40;4.60;;;;;;;14.86;53.65;99321.59;116922;1198;23807;-59
2021/09/17 03:09:11;;;;;;;9.70;5.20;;;;;;;14.88;53.73;99318.38;116887;1198;137947;-59
2021/09/17 03:11:40;;;;;;;11.70;5.00;;;;;;;14.89;53.85;99317.48;116992;1199;22329;-59
2021/09/17 03:14:09;;;;;;;19.80;6.50;;;;;;;14.91;53.73;99313.36;117025;1198;22371;-59
2021/09/17 03:16:37;;;;;;;10.50;5.00;;;;;;;14.90;53.35;99313.52;116847;1198;137172;-59
2021/09/17 03:19:08;;;;;;;12.40;6.10;;;;;;;14.92;53.29;99314.01;117021;1199;23620;-59
2021/09/17 03:21:38;;;;;;;11.80;5.30;;;;;;;14.94;53.30;99314.05;116767;1199;137412;-59
2021/09/17 03:24:06;;;;;;;11.00;5.10;;;;;;;14.96;53.27;99310.52;117006;1198;23078;-58
2021/09/17 03:26:54;;;;;;;11.40;5.80;;;;;;;14.98;53.26;99310.27;116963;1193;22286;-59
2021/09/17 03:29:23;;;;;;;10.60;5.80;;;;;;;14.99;53.20;99307.75;116861;1199;137383;-59
2021/09/17 03:31:51;;;;;;;12.60;6.00;;;;;;;15.00;53.10;99304.75;116936;1199;22460;-57
2021/09/17 03:34:19;;;;;;;11.10;5.50;;;;;;;15.00;53.25;99303.27;116916;1198;138232;-61
2021/09/17 03:36:48;;;;;;;16.30;5.80;;;;;;;15.01;53.32;99302.06;116992;1199;22320;-58
2021/09/17 03:39:16;;;;;;;15.00;6.40;;;;;;;15.00;53.32;99301.19;116903;1199;139878;-57
2021/09/17 03:41:45;;;;;;;28.50;7.60;;;;;;;15.00;53.22;99293.45;116999;1198;23250;-58
2021/09/17 03:44:13;;;;;;;18.50;8.10;;;;;;;14.99;53.33;99289.41;116952;1198;22398;-60
2021/09/17 03:46:42;;;;;;;14.60;7.00;;;;;;;14.99;53.30;99289.70;116892;1198;137014;-60
2021/09/17 03:49:10;;;;;;;13.10;6.60;;;;;;;14.98;53.46;99290.23;116986;1199;22293;-60
2021/09/17 03:51:39;;;;;;;12.30;7.80;;;;;;;14.99;53.60;99285.30;116892;1199;138444;-60
2021/09/17 03:54:07;;;;;;;12.40;6.00;;;;;;;14.98;53.72;99285.14;117057;1198;22413;-60
2021/09/17 03:58:46;;;;;;;10.50;5.70;;;;;;;15.02;53.39;99282.90;110676;1209;545384;-60
2021/09/17 04:01:15;;;;;;;12.50;6.30;;;;;;;14.99;53.73;99277.61;115907;1205;23326;-59
2021/09/17 04:03:44;;;;;;;14.20;5.70;;;;;;;14.99;53.53;99274.27;115808;1205;136792;-60
2021/09/17 04:06:13;;;;;;;12.40;6.30;;;;;;;14.98;53.57;99272.58;116023;1205;23678;-60
2021/09/17 04:08:41;;;;;;;13.50;6.90;;;;;;;14.98;53.77;99265.66;116021;1205;22453;-60
2021/09/17 04:11:29;;;;;;;17.30;5.90;;;;;;;14.98;53.63;99261.17;115981;1205;136701;-60
2021/09/17 04:13:58;;;;;;;11.90;5.60;;;;;;;14.96;53.42;99260.42;116205;1204;23321;-59
2021/09/17 04:16:26;;;;;;;12.50;5.40;;;;;;;14.94;53.59;99257.48;116029;1205;137124;-59
2021/09/17 04:18:57;;;;;;;12.80;6.00;;;;;;;14.93;53.69;99255.67;116200;1205;23220;-59
2021/09/17 04:21:27;;;;;;;11.00;5.90;;;;;;;14.92;53.63;99253.22;115995;1205;138285;-59
2021/09/17 04:23:55;;;;;;;8.20;4.60;;;;;;;14.92;53.58;99245.98;116147;1199;22618;-59
2021/09/17 04:26:23;;;;;;;14.00;5.10;;;;;;;14.91;53.73;99243.68;113947;1205;24256;-60
2021/09/17 04:28:52;;;;;;;14.20;6.00;;;;;;;14.87;53.60;99243.34;115987;1204;138074;-59
2021/09/17 04:31:20;;;;;;;15.90;5.50;;;;;;;14.86;53.77;99243.23;116161;1204;22358;-59
2021/09/17 04:33:48;;;;;;;18.50;5.60;;;;;;;14.85;53.84;99241.29;115995;1204;137681;-59
2021/09/17 04:36:16;;;;;;;30.70;6.80;;;;;;;14.86;53.75;99242.47;116171;1204;22247;-60
2021/09/17 04:38:44;;;;;;;15.70;5.30;;;;;;;14.87;53.76;99240.31;116125;1205;22621;-59
2021/09/17 04:41:12;;;;;;;10.10;5.40;;;;;;;14.87;54.16;99239.45;116041;1205;137805;-60
2021/09/17 04:43:40;;;;;;;25.90;6.40;;;;;;;14.88;54.18;99234.60;116149;1205;22972;-59
2021/09/17 04:46:16;;;;;;;14.60;6.80;;;;;;;14.89;53.97;99236.14;116104;1205;137363;-59
2021/09/17 04:48:44;;;;;;;13.70;6.20;;;;;;;14.88;53.75;99236.64;116115;1205;23472;-59
2021/09/17 04:51:14;;;;;;;11.10;6.30;;;;;;;14.87;53.91;99233.52;116002;1205;137829;-60
2021/09/17 04:53:42;;;;;;;11.20;5.50;;;;;;;14.87;53.82;99235.84;116162;1205;22233;-59
2021/09/17 04:56:10;;;;;;;11.30;5.00;;;;;;;14.86;53.93;99233.95;116136;1204;22317;-59
2021/09/17 04:58:44;;;;;;;10.00;5.50;;;;;;;14.88;54.15;99237.13;116034;1204;139150;-59
2021/09/17 05:01:12;;;;;;;9.80;5.20;;;;;;;14.88;54.17;99237.89;116105;1205;22355;-59
2021/09/17 05:03:41;;;;;;;14.20;5.60;;;;;;;14.89;54.32;99233.77;116068;1204;136806;-59
2021/09/17 05:06:10;;;;;;;16.10;4.80;;;;;;;14.89;54.48;99234.65;114412;1204;25160;-59
2021/09/17 05:08:38;;;;;;;35.40;6.70;;;;;;;14.89;54.53;99227.36;116153;1200;23591;-61
2021/09/17 05:11:06;;;;;;;20.40;5.70;;;;;;;14.92;54.79;99232.43;116092;1203;136813;-60
2021/09/17 05:13:34;;;;;;;14.80;5.30;;;;;;;14.93;54.96;99222.42;116036;1204;24444;-61
2021/09/17 05:16:03;;;;;;;21.00;6.30;;;;;;;14.96;54.89;99225.80;116411;1195;137934;-61
2021/09/17 05:18:31;;;;;;;23.80;5.90;;;;;;;14.98;55.03;99222.04;116680;1200;22323;-60
2021/09/17 05:20:59;;;;;;;19.10;6.80;;;;;;;15.02;55.32;99220.44;116587;1200;23155;-59
2021/09/17 05:23:40;;;;;;;20.90;5.30;;;;;;;15.05;55.34;99214.47;116496;1200;136567;-60
2021/09/17 05:26:11;;;;;;;21.40;5.90;;;;;;;15.08;55.50;99213.83;116570;1201;23198;-60
2021/09/17 05:28:59;;;;;;;25.40;6.40;;;;;;;15.12;55.55;99211.92;116451;1201;137494;-59
2021/09/17 05:31:27;;;;;;;31.70;7.80;;;;;;;15.15;55.81;99202.37;116608;1201;22359;-59
2021/09/17 05:33:55;;;;;;;20.90;6.30;;;;;;;15.20;55.70;99198.51;116430;1201;137139;-59
2021/09/17 05:36:24;;;;;;;22.00;5.70;;;;;;;15.26;55.62;99196.09;116611;1193;22368;-60
2021/09/17 05:38:52;;;;;;;20.10;5.50;;;;;;;15.31;55.86;99192.16;116612;1201;22309;-59
2021/09/17 05:41:20;;;;;;;23.70;5.80;;;;;;;15.36;56.11;99191.15;116501;1200;137178;-61
2021/09/17 05:44:08;;;;;;;18.40;6.00;;;;;;;15.45;56.30;99189.74;116548;1193;23107;-60
2021/09/17 05:46:37;;;;;;;15.90;5.20;;;;;;;15.50;56.25;99184.67;116474;1201;137859;-60
2021/09/17 05:49:08;;;;;;;21.70;6.30;;;;;;;15.59;56.30;99188.20;116572;1200;23827;-60
2021/09/17 05:51:51;;;;;;;13.80;5.10;;;;;;;15.65;56.53;99185.63;116469;1201;138230;-59
2021/09/17 05:54:19;;;;;;;10.50;5.30;;;;;;;15.71;56.68;99181.41;116577;1201;24327;-59
2021/09/17 05:56:47;;;;;;;19.10;5.60;;;;;;;15.77;57.02;99174.55;116550;1201;23239;-60
2021/09/17 05:59:15;;;;;;;12.40;6.40;;;;;;;15.82;56.67;99177.54;116463;1202;137090;-60
2021/09/17 06:01:44;;;;;;;10.10;4.90;;;;;;;15.87;57.03;99176.61;116634;1200;23134;-60
2021/09/17 06:04:32;;;;;;;22.30;5.60;;;;;;;15.94;57.34;99162.61;116471;1201;137020;-60
2021/09/17 06:07:01;;;;;;;10.20;6.00;;;;;;;16.00;57.70;99156.12;116572;1202;22346;-60
2021/09/17 06:09:30;;;;;;;16.50;5.70;;;;;;;16.09;57.75;99157.59;116476;1201;137565;-60
2021/09/17 06:12:03;;;;;;;15.90;5.60;;;;;;;16.19;57.85;99156.58;116582;1201;23142;-60
2021/09/17 06:14:32;;;;;;;9.60;5.80;;;;;;;16.28;58.05;99156.41;116575;1200;22427;-60
2021/09/17 06:17:20;;;;;;;11.50;5.30;;;;;;;16.39;58.38;99153.52;116511;1200;136463;-60
2021/09/17 06:19:52;;;;;;;17.00;6.30;;;;;;;16.49;58.64;99147.31;116628;1200;22294;-60
2021/09/17 06:22:20;;;;;;;12.80;5.80;;;;;;;16.59;58.92;99142.55;116430;1200;137304;-60
2021/09/17 06:24:51;;;;;;;13.30;6.00;;;;;;;16.67;59.60;99138.01;116555;1200;23398;-60
2021/09/17 06:27:19;;;;;;;19.50;5.70;;;;;;;16.79;59.65;99137.09;116475;1195;136975;-60
2021/09/17 06:29:48;;;;;;;12.10;6.20;;;;;;;16.92;59.42;99136.64;116659;1201;22933;-59
2021/09/17 06:32:17;;;;;;;16.30;6.70;;;;;;;17.04;59.17;99133.61;116616;1201;22311;-60
2021/09/17 06:34:47;;;;;;;22.60;8.30;;;;;;;17.15;59.20;99135.89;116514;1196;136844;-60
2021/09/17 06:37:15;;;;;;;14.30;8.20;;;;;;;17.27;59.35;99137.22;116606;1201;23293;-60
2021/09/17 06:39:46;;;;;;;11.00;6.20;;;;;;;17.40;59.30;99136.15;116525;1201;137550;-60
2021/09/17 06:42:14;;;;;;;9.80;6.40;;;;;;;17.49;59.07;99132.66;116591;1201;22315;-60
2021/09/17 06:44:42;;;;;;;13.00;6.00;;;;;;;17.59;59.13;99135.01;116602;1201;22299;-60
2021/09/17 06:47:12;;;;;;;14.70;6.70;;;;;;;17.66;59.24;99135.64;116469;1201;136931;-59
2021/09/17 06:49:40;;;;;;;17.50;6.30;;;;;;;17.70;59.26;99128.73;116603;1202;22390;-59
2021/09/17 06:52:08;;;;;;;11.10;6.20;;;;;;;17.78;59.25;99135.44;116373;1202;137001;-59
2021/09/17 06:54:38;;;;;;;17.50;7.10;;;;;;;17.83;59.13;99136.30;116641;1200;22309;-60
2021/09/17 06:57:26;;;;;;;16.60;8.00;;;;;;;17.86;59.30;99128.57;116551;1201;138150;-60
2021/09/17 06:59:54;;;;;;;12.60;6.70;;;;;;;17.87;59.14;99131.14;116619;1196;22828;-60
2021/09/17 07:02:23;;;;;;;59.10;9.60;;;;;;;17.86;59.16;99133.76;116605;1201;22300;-60
2021/09/17 07:04:52;;;;;;;24.70;8.50;;;;;;;17.85;59.32;99132.61;116512;1201;137112;-60
2021/09/17 07:07:20;;;;;;;25.90;8.30;;;;;;;17.84;59.27;99129.11;116634;1200;22413;-59
2021/09/17 07:09:50;;;;;;;12.90;7.40;;;;;;;17.82;59.25;99121.44;116549;1201;138175;-60
2021/09/17 07:12:18;;;;;;;35.10;8.80;;;;;;;17.82;59.27;99126.20;116586;1200;22304;-60
2021/09/17 07:14:47;;;;;;;30.60;7.40;;;;;;;17.80;59.55;99117.69;116582;1200;22337;-59
2021/09/17 07:17:15;;;;;;;20.90;7.00;;;;;;;17.78;59.51;99116.25;116524;1201;137523;-59
2021/09/17 07:19:44;;;;;;;12.90;6.00;;;;;;;17.77;59.68;99119.80;116648;1201;23203;-60
2021/09/17 07:22:12;;;;;;;16.10;7.20;;;;;;;17.77;59.86;99117.70;116493;1202;137057;-60
2021/09/17 07:24:41;;;;;;;14.70;6.60;;;;;;;17.78;59.78;99113.34;116649;1201;22391;-60
2021/09/17 07:27:09;;;;;;;24.00;7.80;;;;;;;17.78;59.76;99114.04;116572;1201;22334;-60
2021/09/17 07:29:38;;;;;;;19.40;6.70;;;;;;;17.77;59.93;99114.63;116558;1200;137652;-60
2021/09/17 07:32:06;;;;;;;14.20;7.30;;;;;;;17.78;60.00;99115.60;116600;1201;22395;-61
2021/09/17 07:34:34;;;;;;;21.80;7.40;;;;;;;17.78;59.87;99111.67;116461;1193;137007;-60
2021/09/17 07:37:03;;;;;;;10.60;6.30;;;;;;;17.77;59.95;99106.58;116619;1201;23519;-61
2021/09/17 07:39:31;;;;;;;12.40;6.80;;;;;;;17.77;60.16;99105.48;116498;1201;138030;-60
2021/09/17 07:41:59;;;;;;;13.30;6.40;;;;;;;17.77;60.41;99102.57;116629;1201;22991;-61
2021/09/17 07:44:28;;;;;;;15.20;6.60;;;;;;;17.80;60.35;99098.95;116519;1200;22259;-59
2021/09/17 07:46:56;;;;;;;28.60;7.00;;;;;;;17.81;60.49;99100.35;116418;1201;138619;-59
2021/09/17 07:49:24;;;;;;;20.40;6.90;;;;;;;17.84;60.87;99102.83;116569;1201;23404;-60
2021/09/17 07:51:52;;;;;;;191.50;21.70;;;;;;;17.84;60.78;99098.75;116492;1201;136968;-60
2021/09/17 07:54:21;;;;;;;36.50;9.50;;;;;;;17.86;61.11;99103.27;116586;1201;22311;-60
2021/09/17 07:56:48;;;;;;;18.90;7.10;;;;;;;17.87;61.28;99099.48;116541;1201;22346;-60
2021/09/17 07:59:17;;;;;;;23.90;10.70;;;;;;;17.89;61.37;99091.70;116576;1201;137783;-60
2021/09/17 08:01:46;;;;;;;20.50;10.40;;;;;;;17.90;61.43;99088.58;116603;1201;22288;-62
2021/09/17 08:04:15;;;;;;;30.10;10.00;;;;;;;17.91;61.33;99085.73;116464;1200;137860;-62
2021/09/17 08:06:43;;;;;;;24.50;13.10;;;;;;;17.93;61.40;99084.61;116609;1202;22312;-60
2021/09/17 08:09:12;;;;;;;25.80;15.30;;;;;;;17.92;61.55;99081.85;116505;1202;22299;-62
2021/09/17 08:11:43;;;;;;;20.60;12.90;;;;;;;17.92;61.67;99079.39;116586;1201;137688;-60
2021/09/17 08:14:12;;;;;;;29.50;16.10;;;;;;;17.93;61.96;99079.75;116616;1200;22250;-62
2021/09/17 08:16:41;;;;;;;137.80;24.60;;;;;;;17.93;62.01;99073.63;116523;1201;137315;-63
2021/09/17 08:19:10;;;;;;;27.70;11.60;;;;;;;17.93;62.24;99072.30;116657;1201;22379;-60
2021/09/17 08:21:41;;;;;;;17.20;9.50;;;;;;;17.95;62.37;99069.39;116557;1200;137878;-60
2021/09/17 08:24:19;;;;;;;24.10;9.10;;;;;;;17.95;62.54;99073.25;116717;1201;23102;-60
2021/09/17 08:26:51;;;;;;;19.90;9.40;;;;;;;17.95;62.78;99073.73;116650;1201;22286;-60
2021/09/17 08:29:19;;;;;;;16.40;9.00;;;;;;;17.94;62.89;99065.89;116516;1201;138731;-61
2021/09/17 08:31:49;;;;;;;31.50;10.50;;;;;;;17.97;63.14;99062.95;116654;1200;22321;-61
2021/09/17 08:34:19;;;;;;;27.60;11.90;;;;;;;17.99;63.34;99064.77;116521;1200;138583;-62
2021/09/17 08:36:51;;;;;;;33.80;17.40;;;;;;;18.00;63.46;99059.66;116671;1201;23570;-62
2021/09/17 08:39:20;;;;;;;53.00;27.30;;;;;;;18.02;63.47;99055.52;116560;1201;22317;-62
2021/09/17 08:41:49;;;;;;;33.90;15.60;;;;;;;18.04;63.56;99057.55;116523;1200;139909;-62
2021/09/17 08:44:18;;;;;;;44.00;15.20;;;;;;;18.07;63.66;99053.41;116932;1199;22313;-61
2021/09/17 08:46:46;;;;;;;26.90;12.10;;;;;;;18.08;63.41;99048.14;116872;1199;138886;-62
2021/09/17 08:49:23;;;;;;;17.90;10.30;;;;;;;18.11;63.81;99046.46;117012;1199;22392;-60
2021/09/17 08:51:56;;;;;;;23.00;10.90;;;;;;;18.14;63.81;99045.21;116855;1199;139096;-60
2021/09/17 08:54:25;;;;;;;29.50;9.90;;;;;;;18.16;63.88;99045.88;116793;1199;22479;-60
2021/09/17 08:56:53;;;;;;;22.00;9.00;;;;;;;18.18;64.14;99045.80;116836;1199;23174;-60
2021/09/17 08:59:22;;;;;;;33.30;9.80;;;;;;;18.21;64.23;99043.23;116613;1193;137926;-60
2021/09/17 09:01:50;;;;;;;20.70;9.30;;;;;;;18.22;64.33;99037.25;116974;1199;22337;-61
2021/09/17 09:04:28;;;;;;;53.80;11.90;;;;;;;18.26;64.28;99037.86;116852;1199;137805;-61
2021/09/17 09:07:04;;;;;;;26.70;9.20;;;;;;;18.29;64.52;99034.08;116722;1199;22364;-61
2021/09/17 09:09:33;;;;;;;33.30;10.50;;;;;;;18.34;64.52;99031.51;116765;1199;137352;-61
2021/09/17 09:12:08;;;;;;;20.50;8.50;;;;;;;18.37;64.39;99030.09;116986;1199;22331;-61
2021/09/17 09:14:36;;;;;;;21.70;9.50;;;;;;;18.40;64.39;99023.70;116639;1199;23056;-61
2021/09/17 09:17:09;;;;;;;47.80;11.80;;;;;;;18.43;64.44;99024.85;116611;1199;138369;-61
2021/09/17 09:19:38;;;;;;;38.40;14.50;;;;;;;18.46;64.47;99015.54;116931;1199;23288;-61
2021/09/17 09:22:06;;;;;;;21.40;11.10;;;;;;;18.47;64.54;99016.85;116508;1194;137301;-60
2021/09/17 09:24:39;;;;;;;30.00;12.60;;;;;;;18.49;64.71;99015.20;116900;1198;23597;-62
2021/09/17 09:27:20;;;;;;;47.10;15.00;;;;;;;18.52;65.15;99013.52;113330;1193;25157;-61
2021/09/17 09:29:53;;;;;;;30.40;14.30;;;;;;;18.55;64.97;99008.08;112583;1193;137902;-60
2021/09/17 09:32:32;;;;;;;20.10;12.30;;;;;;;18.57;65.02;99006.48;116682;1199;23177;-60
2021/09/17 09:35:05;;;;;;;21.90;13.50;;;;;;;18.64;65.17;99003.08;116537;1199;138333;-60
2021/09/17 09:37:35;;;;;;;33.60;15.80;;;;;;;18.69;65.10;98998.52;116887;1199;23485;-59
2021/09/17 09:40:12;;;;;;;28.70;15.20;;;;;;;18.75;65.20;98992.73;116783;1199;138611;-59
2021/09/17 09:42:44;;;;;;;33.00;15.50;;;;;;;18.83;65.13;98994.52;116933;1199;23529;-60
2021/09/17 09:45:23;;;;;;;25.30;14.80;;;;;;;18.91;65.22;98991.23;116874;1199;23147;-61
2021/09/17 09:47:55;;;;;;;23.30;12.40;;;;;;;18.98;65.10;98986.91;116873;1199;137735;-62
2021/09/17 09:50:26;;;;;;;20.40;9.90;;;;;;;19.05;65.05;98988.79;116906;1199;22243;-62
2021/09/17 09:53:01;;;;;;;16.90;8.80;;;;;;;19.12;64.69;98984.98;116737;1199;138240;-63
2021/09/17 09:55:29;;;;;;;16.20;8.80;;;;;;;19.18;64.46;98979.58;116759;1199;23109;-60
2021/09/17 09:57:58;;;;;;;19.20;7.50;;;;;;;19.23;64.56;98979.78;116564;1199;137903;-60
2021/09/17 10:00:27;;;;;;;32.30;10.60;;;;;;;19.26;64.44;98975.92;116640;1200;22213;-60
2021/09/17 10:02:56;;;;;;;22.10;8.20;;;;;;;19.30;64.17;98977.80;116926;1199;22995;-60
2021/09/17 10:05:27;;;;;;;13.40;7.90;;;;;;;19.32;64.36;98975.06;116561;1199;138328;-60
2021/09/17 10:07:55;;;;;;;16.20;8.00;;;;;;;19.34;64.57;98972.88;116933;1198;23105;-62
2021/09/17 10:10:23;;;;;;;24.20;7.40;;;;;;;19.35;64.84;98970.95;116709;1199;137015;-61
2021/09/17 10:13:12;;;;;;;17.40;7.90;;;;;;;19.37;64.59;98966.84;116933;1199;22321;-61
2021/09/17 10:15:41;;;;;;;40.10;8.60;;;;;;;19.39;64.57;98957.67;116591;1199;138224;-62
2021/09/17 10:18:09;;;;;;;37.00;9.30;;;;;;;19.42;64.47;98953.71;116600;1200;22523;-61
2021/09/17 10:20:37;;;;;;;18.30;8.80;;;;;;;19.47;64.45;98952.40;116940;1199;22163;-61
2021/09/17 10:23:31;;;;;;;21.40;10.60;;;;;;;19.53;64.30;98954.73;116494;1199;138122;-62
2021/09/17 10:26:09;;;;;;;27.60;10.10;;;;;;;19.61;64.62;98957.69;116856;1199;22250;-62
2021/09/17 10:29:05;;;;;;;23.50;8.80;;;;;;;19.68;64.50;98958.70;116815;1199;137992;-62
2021/09/17 10:31:44;;;;;;;27.00;8.70;;;;;;;19.76;64.35;98956.98;116672;1199;22352;-60
2021/09/17 10:34:42;;;;;;;61.30;20.40;;;;;;;19.82;64.09;98962.58;116789;1199;139207;-60
2021/09/17 10:37:19;;;;;;;18.90;9.60;;;;;;;19.88;63.66;98960.97;116705;1200;22327;-60
2021/09/17 10:40:05;;;;;;;88.40;13.20;;;;;;;19.92;63.10;98954.92;116588;1199;137422;-61
2021/09/17 10:42:34;;;;;;;24.50;8.70;;;;;;;19.95;62.85;98954.02;116907;1193;23259;-62
2021/09/17 10:45:04;;;;;;;25.90;13.10;;;;;;;19.96;62.74;98956.06;116845;1199;22282;-60
2021/09/17 10:47:39;;;;;;;20.90;11.70;;;;;;;19.97;62.61;98953.33;116837;1197;137942;-61
2021/09/17 10:50:10;;;;;;;18.20;8.00;;;;;;;19.97;62.54;98954.86;116857;1194;23284;-61
2021/09/17 10:52:40;;;;;;;22.00;8.10;;;;;;;19.96;62.23;98953.92;116758;1193;137640;-62
2021/09/17 10:56:01;;;;;;;18.10;8.10;;;;;;;19.97;62.18;98950.14;116950;1193;22283;-62
2021/09/17 10:58:30;;;;;;;34.40;13.60;;;;;;;19.96;62.51;98948.29;116827;1199;137324;-62
2021/09/17 11:01:15;;;;;;;20.80;8.50;;;;;;;19.95;62.67;98940.74;116929;1199;23049;-62
2021/09/17 11:03:53;;;;;;;26.40;8.40;;;;;;;19.92;62.52;98932.11;116632;1198;137815;-62
2021/09/17 11:06:29;;;;;;;31.20;10.30;;;;;;;19.91;62.76;98925.83;114750;1199;22492;-62
2021/09/17 11:09:04;;;;;;;32.10;9.70;;;;;;;19.90;62.73;98928.83;116621;1193;22396;-62
2021/09/17 11:11:55;;;;;;;22.30;10.00;;;;;;;19.91;62.69;98929.48;116816;1199;137734;-60
2021/09/17 11:14:26;;;;;;;31.10;9.80;;;;;;;19.93;62.83;98928.69;116868;1198;23173;-60
2021/09/17 11:17:14;;;;;;;38.80;9.10;;;;;;;19.97;62.75;98929.33;116817;1199;138396;-60
2021/09/17 11:19:42;;;;;;;19.90;7.90;;;;;;;20.01;62.76;98922.28;116646;1200;22272;-61
2021/09/17 11:22:10;;;;;;;27.00;8.00;;;;;;;20.06;62.72;98918.92;116787;1184;138110;-61
2021/09/17 11:24:40;;;;;;;26.20;7.90;;;;;;;20.11;62.80;98917.00;116894;1198;22311;-61
2021/09/17 11:27:08;;;;;;;14.80;7.60;;;;;;;20.18;62.56;98910.30;116867;1199;22283;-59
2021/09/17 11:29:37;;;;;;;24.60;7.90;;;;;;;20.23;62.21;98907.17;116497;1199;137533;-62
2021/09/17 11:32:05;;;;;;;19.80;9.40;;;;;;;20.30;61.85;98908.88;116912;1198;23541;-62
2021/09/17 11:34:34;;;;;;;17.60;8.70;;;;;;;20.35;61.60;98901.31;116805;1199;142394;-61